Terminal Aerodrome Forecast
Issued by NWS

Home | Current Version | Previous Version | Text Only | Print | Product List | Glossary On
Versions: 1 2 3 4 5 6 7 8 9 10 11 12 13 14 15 16
000
FTPA31 PHFO 251128
TAFSTU
TAF
NSTU 251128Z 2512/2612 14017KT P6SM VCSH SCT022 BKN045=

USA.gov is the U.S. government's official web portal to all federal, state and local government web resources and services.